Time;durP1;ratioP1;P1;durP2;ratioP2;P2;SDS_P1;SDS_P2;PMS_P1;PMS_P2;Temp;Humidity;BMP_temperature;BMP_pressure;BME280_temperature;BME280_humidity;BME280_pressure;Samples;Min_cycle;Max_cycle;Signal;HPM_P1;HPM_P2
2021/01/22 00:01:13;;;;;;;3.20;2.30;;;;;;;9.52;48.30;93811.66;5032455;28;20718;-77
2021/01/22 00:03:39;;;;;;;2.63;2.17;;;;;;;9.41;48.40;93805.44;5032618;28;20195;-77
2021/01/22 00:06:05;;;;;;;2.70;2.13;;;;;;;9.39;48.32;93842.59;5031768;28;20220;-78
2021/01/22 00:08:32;;;;;;;4.07;3.23;;;;;;;9.13;48.63;93888.03;5031996;28;20206;-78
2021/01/22 00:10:58;;;;;;;6.00;3.87;;;;;;;8.73;50.44;93899.56;5032863;28;20256;-78
2021/01/22 00:13:24;;;;;;;5.00;3.53;;;;;;;8.61;50.18;93907.91;5032920;28;20202;-78
2021/01/22 00:15:49;;;;;;;4.93;4.10;;;;;;;8.60;51.05;93887.59;5032343;28;20198;-77
2021/01/22 00:18:16;;;;;;;4.10;3.70;;;;;;;8.63;50.56;93893.09;5032890;28;20212;-78
2021/01/22 00:20:42;;;;;;;5.17;3.80;;;;;;;8.62;50.43;93899.22;5032364;28;20218;-78
2021/01/22 00:23:08;;;;;;;3.97;3.43;;;;;;;8.72;50.30;93905.69;5032478;28;20206;-78
2021/01/22 00:25:34;;;;;;;6.30;3.63;;;;;;;8.71;50.65;93893.84;5031782;28;20198;-77
2021/01/22 00:28:00;;;;;;;4.10;3.33;;;;;;;8.77;50.21;93890.47;5032310;28;20240;-78
2021/01/22 00:30:26;;;;;;;3.37;3.03;;;;;;;8.83;49.96;93895.56;5031924;28;20248;-78
2021/01/22 00:32:52;;;;;;;3.17;2.80;;;;;;;8.84;50.27;93883.53;5031212;28;20546;-77
2021/01/22 00:35:19;;;;;;;5.50;2.83;;;;;;;8.86;49.94;93902.03;5031063;28;20693;-77
2021/01/22 00:37:45;;;;;;;4.50;2.80;;;;;;;8.79;50.06;93902.09;5032388;28;20596;-77
2021/01/22 00:40:12;;;;;;;2.90;2.60;;;;;;;8.80;50.07;93892.63;5031013;28;20745;-78
2021/01/22 00:42:38;;;;;;;3.13;2.50;;;;;;;8.78;49.71;93894.59;5032198;28;20221;-78
2021/01/22 00:45:05;;;;;;;3.40;2.17;;;;;;;8.82;49.86;93898.34;5031159;28;20194;-78
2021/01/22 00:47:31;;;;;;;2.87;2.37;;;;;;;8.87;49.59;93888.22;5032185;28;20209;-78
2021/01/22 00:49:57;;;;;;;2.93;2.60;;;;;;;8.90;49.98;93885.25;5031511;28;20225;-78
2021/01/22 00:52:24;;;;;;;2.60;2.40;;;;;;;8.93;49.71;93879.69;5031844;28;20218;-78
2021/01/22 00:54:50;;;;;;;2.67;2.37;;;;;;;8.96;49.52;93869.81;5030861;28;20256;-77
2021/01/22 00:57:16;;;;;;;3.20;2.60;;;;;;;9.04;49.52;93871.34;5031285;28;20202;-77
2021/01/22 00:59:42;;;;;;;2.80;2.40;;;;;;;9.09;49.19;93866.34;5031584;28;20232;-78
2021/01/22 01:02:08;;;;;;;2.47;2.27;;;;;;;9.12;49.52;93849.75;5031664;28;20283;-76
2021/01/22 01:04:34;;;;;;;2.57;2.33;;;;;;;9.06;49.43;93843.66;5031133;28;20202;-77
2021/01/22 01:07:00;;;;;;;2.70;2.50;;;;;;;9.08;49.22;93833.19;5031236;28;20272;-77
2021/01/22 01:09:27;;;;;;;2.50;2.30;;;;;;;9.07;49.45;93827.25;5031637;28;20419;-78
2021/01/22 01:11:52;;;;;;;2.47;2.27;;;;;;;9.08;49.22;93833.19;5031611;28;20644;-78
2021/01/22 01:14:19;;;;;;;3.40;2.30;;;;;;;9.07;49.17;93832.38;5030802;28;20195;-77
2021/01/22 01:16:44;;;;;;;2.53;2.30;;;;;;;9.07;49.15;93842.66;5031608;28;20279;-77
2021/01/22 01:19:10;;;;;;;2.50;2.27;;;;;;;9.00;49.40;93841.94;5030819;28;20217;-77
2021/01/22 01:21:36;;;;;;;2.43;2.23;;;;;;;9.01;49.63;93838.38;5031412;28;20242;-78
2021/01/22 01:24:03;;;;;;;2.17;1.97;;;;;;;9.04;49.76;93839.75;5030414;28;20772;-78
2021/01/22 01:26:30;;;;;;;2.10;1.90;;;;;;;9.03;49.50;93838.97;5031476;28;20205;-77
2021/01/22 01:28:56;;;;;;;2.70;2.27;;;;;;;9.00;49.88;93831.69;5030943;28;20202;-77
2021/01/22 01:31:22;;;;;;;3.43;2.30;;;;;;;9.01;49.87;93846.09;5030740;28;20218;-77
2021/01/22 01:33:48;;;;;;;2.53;2.33;;;;;;;9.07;49.27;93831.59;5030664;28;20209;-78
2021/01/22 01:36:14;;;;;;;2.50;2.13;;;;;;;9.12;49.53;93829.19;5031130;28;20213;-77
2021/01/22 01:38:39;;;;;;;2.20;2.00;;;;;;;9.18;49.15;93830.94;5031373;28;20205;-78
2021/01/22 01:41:06;;;;;;;2.60;2.13;;;;;;;9.23;49.37;93828.53;5031006;28;20225;-77
2021/01/22 01:43:32;;;;;;;3.70;1.87;;;;;;;9.25;49.26;93823.94;5033424;28;20563;-77
2021/01/22 01:45:58;;;;;;;2.20;1.93;;;;;;;9.26;49.60;93834.00;5035334;28;20582;-78
2021/01/22 01:48:25;;;;;;;2.40;2.10;;;;;;;9.26;49.18;93818.59;5034649;28;20213;-78
2021/01/22 01:50:51;;;;;;;3.40;1.90;;;;;;;9.27;49.52;93814.25;5014546;28;20636;-77
2021/01/22 01:53:18;;;;;;;2.20;2.00;;;;;;;9.25;49.37;93814.47;5016446;28;20577;-78
2021/01/22 01:55:44;;;;;;;3.77;1.90;;;;;;;9.26;49.51;93810.09;5014874;28;20210;-77
2021/01/22 01:58:12;;;;;;;2.00;1.80;;;;;;;9.29;49.12;93807.91;5023057;28;20554;-77
2021/01/22 02:00:40;;;;;;;2.07;1.97;;;;;;;9.28;49.51;93795.28;5034858;28;20218;-78
2021/01/22 02:03:06;;;;;;;2.27;2.00;;;;;;;9.30;49.35;93799.22;5034610;28;20542;-78
2021/01/22 02:05:32;;;;;;;2.20;2.00;;;;;;;9.27;49.20;93797.06;5034343;28;20565;-77
2021/01/22 02:07:58;;;;;;;2.33;2.10;;;;;;;9.27;49.45;93801.41;5034209;28;20195;-77
2021/01/22 02:10:24;;;;;;;4.03;2.80;;;;;;;9.23;49.60;93798.50;5034881;28;20214;-77
2021/01/22 02:12:51;;;;;;;2.10;1.90;;;;;;;9.22;49.58;93796.16;5033927;28;20203;-78
2021/01/22 02:15:18;;;;;;;2.00;1.80;;;;;;;9.17;49.52;93793.41;5034498;28;20202;-78
2021/01/22 02:17:46;;;;;;;2.63;1.63;;;;;;;9.21;49.40;93800.50;5034090;28;20202;-78
2021/01/22 02:20:29;;;;;;;2.50;1.70;;;;;;;9.21;49.64;93800.50;5033765;28;20277;-78
2021/01/22 02:22:56;;;;;;;1.77;1.67;;;;;;;9.25;49.65;93811.09;5034224;28;20190;-77
2021/01/22 02:25:27;;;;;;;1.83;1.73;;;;;;;9.25;49.57;93811.09;5034096;28;20237;-78
2021/01/22 02:27:53;;;;;;;1.83;1.70;;;;;;;9.24;49.59;93822.38;5034516;28;20233;-78
2021/01/22 02:30:19;;;;;;;7.90;2.17;;;;;;;9.25;49.26;93835.00;5034163;28;20214;-78
2021/01/22 02:32:47;;;;;;;1.73;1.63;;;;;;;9.32;49.35;93834.94;5034095;28;20198;-77
2021/01/22 02:35:16;;;;;;;1.87;1.60;;;;;;;9.37;49.93;93831.75;5033462;28;20205;-77
2021/01/22 02:37:47;;;;;;;1.80;1.70;;;;;;;9.37;49.71;93824.06;5034236;28;20225;-78
2021/01/22 02:40:14;;;;;;;2.00;1.83;;;;;;;9.38;49.69;93823.06;5033631;28;20226;-77
2021/01/22 02:42:41;;;;;;;2.93;1.80;;;;;;;9.37;49.79;93842.03;5034101;28;20206;-77
2021/01/22 02:45:11;;;;;;;1.80;1.63;;;;;;;9.37;49.74;93845.38;5033945;28;20259;-77
2021/01/22 02:47:37;;;;;;;1.70;1.60;;;;;;;9.35;50.16;93837.09;5033764;28;20206;-79
2021/01/22 02:50:04;;;;;;;1.80;1.70;;;;;;;9.33;50.16;93832.19;5026267;28;20198;-78
2021/01/22 02:52:30;;;;;;;1.97;1.70;;;;;;;9.32;49.81;93833.16;5033776;28;20213;-77
2021/01/22 02:54:56;;;;;;;1.90;1.60;;;;;;;9.31;49.88;93851.34;5032441;28;20665;-77
2021/01/22 02:57:38;;;;;;;1.90;1.60;;;;;;;9.29;50.27;93848.22;5033646;28;20616;-77
2021/01/22 03:00:13;;;;;;;2.80;1.80;;;;;;;9.29;49.93;93849.00;5032881;28;20226;-78
2021/01/22 03:02:42;;;;;;;1.50;1.40;;;;;;;9.28;49.69;93859.47;5033231;28;20201;-77
2021/01/22 03:05:11;;;;;;;1.73;1.60;;;;;;;9.28;49.80;93864.59;5033240;28;20661;-76
2021/01/22 03:07:42;;;;;;;2.33;1.70;;;;;;;9.26;50.08;93869.94;5033451;28;20198;-78
2021/01/22 03:10:11;;;;;;;2.53;1.70;;;;;;;9.21;50.36;93882.66;5033099;28;20281;-78
2021/01/22 03:12:38;;;;;;;2.63;1.73;;;;;;;9.19;50.62;93876.94;5033726;28;20206;-77
2021/01/22 03:15:05;;;;;;;1.70;1.60;;;;;;;9.12;50.57;93872.84;5033411;28;20747;-77
2021/01/22 03:17:32;;;;;;;1.90;1.73;;;;;;;9.12;50.34;93889.03;5034071;28;20198;-77
2021/01/22 03:19:58;;;;;;;1.87;1.67;;;;;;;9.09;50.49;93884.31;5023113;28;20244;-78
2021/01/22 03:22:26;;;;;;;1.73;1.63;;;;;;;9.12;51.03;93883.91;5032089;28;20210;-76
2021/01/22 03:24:52;;;;;;;1.67;1.50;;;;;;;9.07;51.10;93893.22;5031753;28;20201;-77
2021/01/22 03:27:18;;;;;;;1.40;1.30;;;;;;;9.06;50.94;93902.69;5032157;28;20281;-77
2021/01/22 03:29:44;;;;;;;1.80;1.70;;;;;;;9.09;51.42;93906.63;5032607;28;20202;-77
2021/01/22 03:32:10;;;;;;;1.67;1.57;;;;;;;9.08;51.63;93908.41;5032935;28;20280;-77
2021/01/22 03:34:36;;;;;;;1.60;1.50;;;;;;;9.06;51.47;93907.81;5031596;28;20757;-77
2021/01/22 03:37:03;;;;;;;2.13;1.50;;;;;;;9.04;51.54;93916.75;5032513;28;20198;-77
2021/01/22 03:39:33;;;;;;;1.67;1.50;;;;;;;9.07;51.36;93911.19;5031483;28;20226;-76
2021/01/22 03:41:59;;;;;;;1.77;1.67;;;;;;;9.08;51.43;93917.88;5032243;28;20625;-77
2021/01/22 03:44:26;;;;;;;1.50;1.40;;;;;;;9.09;51.82;93911.75;5030909;28;20195;-77
2021/01/22 03:46:52;;;;;;;2.20;1.60;;;;;;;9.06;52.03;93902.69;5032167;28;20221;-77
2021/01/22 03:49:18;;;;;;;1.67;1.50;;;;;;;9.07;51.72;93904.25;5031924;28;20195;-78
2021/01/22 03:51:45;;;;;;;1.70;1.43;;;;;;;9.08;51.68;93905.84;5031893;28;20246;-77
2021/01/22 03:54:11;;;;;;;1.57;1.47;;;;;;;9.08;51.62;93899.91;5031558;28;20201;-77
2021/01/22 03:56:36;;;;;;;2.20;1.50;;;;;;;9.04;52.35;93899.56;5031731;28;20225;-77
2021/01/22 03:59:02;;;;;;;1.60;1.50;;;;;;;8.98;51.92;93897.81;5031220;28;20205;-76
2021/01/22 04:01:29;;;;;;;1.37;1.27;;;;;;;8.85;52.69;93890.97;5031528;28;20662;-77
2021/01/22 04:03:55;;;;;;;1.50;1.40;;;;;;;8.82;53.00;93888.06;5031064;28;20276;-77
2021/01/22 04:06:21;;;;;;;1.43;1.33;;;;;;;8.83;53.35;93881.94;5031404;28;20202;-77
2021/01/22 04:08:49;;;;;;;1.70;1.60;;;;;;;8.84;53.81;93889.44;5031590;28;20202;-77
2021/01/22 04:11:15;;;;;;;1.37;1.20;;;;;;;8.86;53.67;93884.06;5031621;28;20225;-77
2021/01/22 04:13:41;;;;;;;1.87;1.30;;;;;;;8.85;54.07;93883.28;5030819;28;20870;-77
2021/01/22 04:16:07;;;;;;;1.43;1.33;;;;;;;8.89;54.13;93876.75;5031605;28;20232;-76
2021/01/22 04:18:33;;;;;;;1.20;1.10;;;;;;;8.91;54.09;93887.59;5031376;28;20202;-77
2021/01/22 04:20:59;;;;;;;1.40;1.30;;;;;;;8.90;54.24;93868.06;5030755;28;20595;-77
2021/01/22 04:23:25;;;;;;;1.50;1.37;;;;;;;8.84;54.95;93868.13;5031421;28;20206;-76
2021/01/22 04:25:52;;;;;;;1.43;1.33;;;;;;;8.81;55.22;93861.63;5031292;28;20213;-77
2021/01/22 04:28:18;;;;;;;2.03;1.40;;;;;;;8.82;55.57;93857.28;5031608;28;20218;-77
2021/01/22 04:30:44;;;;;;;1.20;1.10;;;;;;;8.85;55.13;93855.06;5031245;28;20214;-77
2021/01/22 04:33:10;;;;;;;1.33;1.23;;;;;;;8.84;55.44;93858.66;5031222;28;20623;-78
2021/01/22 04:35:36;;;;;;;1.20;1.13;;;;;;;8.81;55.85;93843.66;5030739;28;20252;-77
2021/01/22 04:38:02;;;;;;;1.30;1.20;;;;;;;8.79;56.73;93847.41;5031680;28;20209;-77
2021/01/22 04:40:28;;;;;;;2.23;1.13;;;;;;;8.78;56.71;93849.19;5031004;28;20222;-77
2021/01/22 04:42:55;;;;;;;2.00;1.30;;;;;;;8.78;57.10;93838.16;5030951;28;20236;-77
2021/01/22 04:45:21;;;;;;;1.20;1.10;;;;;;;8.87;56.35;93839.44;5030545;28;20198;-76
2021/01/22 04:47:48;;;;;;;1.30;1.20;;;;;;;8.86;57.43;93835.31;5030927;28;20209;-77
2021/01/22 04:50:16;;;;;;;1.23;1.13;;;;;;;8.81;57.70;93840.31;5030622;28;20194;-76
2021/01/22 04:52:43;;;;;;;1.17;1.10;;;;;;;8.83;57.88;93831.41;5030943;28;20213;-77
2021/01/22 04:55:12;;;;;;;1.20;1.10;;;;;;;8.90;58.26;93827.00;5030447;28;20208;-77
2021/01/22 04:57:41;;;;;;;1.20;1.10;;;;;;;8.95;58.31;93824.59;5031255;28;20202;-76
2021/01/22 05:00:09;;;;;;;0.90;0.90;;;;;;;9.00;57.66;93826.53;5030512;28;20226;-78
2021/01/22 05:02:35;;;;;;;1.20;1.10;;;;;;;9.08;57.43;93812.63;5029369;28;20194;-78
2021/01/22 05:05:02;;;;;;;1.27;1.17;;;;;;;9.09;57.80;93809.88;5030279;28;20255;-77
2021/01/22 05:07:29;;;;;;;1.30;1.10;;;;;;;9.16;57.55;93805.47;5031420;28;20202;-78
2021/01/22 05:09:55;;;;;;;1.30;1.20;;;;;;;9.19;57.69;93799.13;5030797;28;20222;-77
2021/01/22 05:12:21;;;;;;;1.20;1.00;;;;;;;9.27;57.23;93809.13;5030495;28;20226;-78
2021/01/22 05:14:47;;;;;;;1.00;1.00;;;;;;;9.27;57.00;93791.94;5029124;28;20225;-77
2021/01/22 05:17:14;;;;;;;1.63;0.90;;;;;;;9.31;57.08;93803.34;5031127;28;20206;-77
2021/01/22 05:19:41;;;;;;;1.60;1.20;;;;;;;9.29;56.88;93794.28;5037220;28;20693;-77
2021/01/22 05:22:12;;;;;;;1.27;1.17;;;;;;;9.28;57.02;93790.94;5036252;28;20221;-77
2021/01/22 05:24:38;;;;;;;1.00;1.00;;;;;;;9.31;56.56;93793.06;5027113;28;20244;-77
2021/01/22 05:27:06;;;;;;;1.27;1.17;;;;;;;9.37;56.93;93782.97;5037198;28;20305;-77
2021/01/22 05:29:34;;;;;;;1.13;1.03;;;;;;;9.33;57.08;93788.50;5037269;28;20221;-77
2021/01/22 05:32:00;;;;;;;1.00;0.80;;;;;;;9.28;56.87;93783.22;5037495;28;20222;-77
2021/01/22 05:34:46;;;;;;;1.27;0.93;;;;;;;9.33;56.56;93775.69;5037352;28;20201;-78
2021/01/22 05:37:12;;;;;;;1.20;1.10;;;;;;;9.38;56.65;93779.41;5037891;28;20231;-78
2021/01/22 05:39:37;;;;;;;1.27;1.17;;;;;;;9.35;56.50;93773.69;5036691;28;20222;-77
2021/01/22 05:42:04;;;;;;;0.87;0.87;;;;;;;9.39;56.15;93768.13;5036895;28;20224;-78
2021/01/22 05:44:30;;;;;;;1.33;0.90;;;;;;;9.46;56.38;93756.75;5032888;28;20195;-77
2021/01/22 05:47:04;;;;;;;1.03;0.97;;;;;;;9.44;56.40;93761.34;5035839;28;20202;-76
2021/01/22 05:49:30;;;;;;;1.87;0.90;;;;;;;9.43;56.16;93753.88;5025849;28;20201;-77
2021/01/22 05:52:00;;;;;;;1.00;0.90;;;;;;;9.44;55.76;93758.75;5024375;28;20225;-77
2021/01/22 05:54:37;;;;;;;0.83;0.83;;;;;;;9.44;55.61;93761.34;5033077;28;20193;-76
2021/01/22 05:57:04;;;;;;;1.00;0.90;;;;;;;9.45;55.61;93765.47;5031310;28;20204;-76
2021/01/22 05:59:30;;;;;;;0.97;0.90;;;;;;;9.46;55.42;93767.03;5033017;28;20206;-75
2021/01/22 06:01:56;;;;;;;1.10;1.00;;;;;;;9.42;55.47;93772.84;5032860;28;20222;-76
2021/01/22 06:04:22;;;;;;;1.13;1.03;;;;;;;9.43;55.42;93777.75;5033527;28;20198;-76
2021/01/22 06:06:50;;;;;;;1.00;1.00;;;;;;;9.44;55.64;93770.81;5032974;28;20259;-75
2021/01/22 06:09:33;;;;;;;1.57;1.00;;;;;;;9.45;55.26;93770.59;5029637;28;20230;-76
2021/01/22 06:12:02;;;;;;;1.43;1.00;;;;;;;9.47;55.57;93757.56;5033242;28;20312;-77
2021/01/22 06:14:33;;;;;;;2.23;1.07;;;;;;;9.53;55.29;93756.72;5032275;28;20290;-76
2021/01/22 06:17:03;;;;;;;1.30;1.10;;;;;;;9.54;54.92;93746.22;5032658;28;20331;-76
2021/01/22 06:19:33;;;;;;;1.37;1.20;;;;;;;9.51;54.95;93738.94;5032613;28;20206;-76
2021/01/22 06:22:03;;;;;;;2.43;1.30;;;;;;;9.47;55.42;93742.13;5033523;28;20218;-76
2021/01/22 06:24:29;;;;;;;1.00;1.00;;;;;;;9.41;55.40;93736.09;5032966;28;20210;-75
2021/01/22 06:26:56;;;;;;;1.47;1.10;;;;;;;9.34;55.38;93736.16;5030669;28;20661;-76
2021/01/22 06:29:23;;;;;;;1.10;1.00;;;;;;;9.30;55.28;93734.22;5030213;28;20193;-77
2021/01/22 06:31:51;;;;;;;1.67;1.10;;;;;;;9.24;55.62;93735.84;5029998;28;20218;-76
2021/01/22 06:34:17;;;;;;;1.50;1.40;;;;;;;9.26;55.41;93740.78;5029208;28;20194;-76
2021/01/22 06:36:44;;;;;;;1.20;1.10;;;;;;;9.27;55.62;93744.91;5029740;28;20210;-75
2021/01/22 06:39:12;;;;;;;1.20;1.10;;;;;;;9.18;55.41;93741.88;5029427;28;20197;-76
2021/01/22 06:41:39;;;;;;;1.10;1.00;;;;;;;9.17;55.41;93742.06;5029361;28;20284;-76
2021/01/22 06:44:07;;;;;;;2.20;1.27;;;;;;;9.07;55.66;93737.41;5027106;28;20194;-76
2021/01/22 06:46:34;;;;;;;1.40;1.30;;;;;;;9.05;55.82;93746.31;5029794;28;20198;-76
2021/01/22 06:49:01;;;;;;;1.30;1.20;;;;;;;9.00;56.03;93750.34;5028128;28;20256;-76
2021/01/22 06:51:30;;;;;;;1.27;1.17;;;;;;;8.92;56.10;93745.47;5026431;28;20265;-75
2021/01/22 06:54:10;;;;;;;1.17;1.07;;;;;;;8.94;56.21;93756.31;5022614;28;20195;-76
2021/01/22 06:56:38;;;;;;;1.50;1.40;;;;;;;8.86;56.54;93766.03;5027966;28;20810;-75
2021/01/22 06:59:40;;;;;;;1.50;1.20;;;;;;;8.87;56.15;93762.47;5028106;28;20281;-75
2021/01/22 07:02:40;;;;;;;1.40;1.30;;;;;;;8.82;56.04;93767.47;5029353;28;20222;-75
2021/01/22 07:05:36;;;;;;;1.60;1.40;;;;;;;8.77;56.33;93773.22;5022329;28;20190;-76
2021/01/22 07:08:05;;;;;;;1.30;1.20;;;;;;;8.78;56.42;93777.38;5027927;28;20212;-75
2021/01/22 07:11:00;;;;;;;1.67;1.30;;;;;;;8.80;56.40;93767.69;5029010;28;20225;-75
2021/01/22 07:13:42;;;;;;;1.30;1.20;;;;;;;8.79;56.27;93775.59;5029110;28;20186;-76
2021/01/22 07:16:10;;;;;;;1.47;1.30;;;;;;;8.77;56.25;93768.09;5029280;28;20977;-76
2021/01/22 07:18:44;;;;;;;1.80;1.67;;;;;;;8.85;56.24;93783.22;5026700;28;20202;-75
2021/01/22 07:21:23;;;;;;;6.83;5.50;;;;;;;8.95;56.07;93782.75;5028504;28;20229;-76
2021/01/22 07:23:51;;;;;;;1.77;1.63;;;;;;;9.03;55.52;93774.00;5028677;28;20244;-76
2021/01/22 07:26:17;;;;;;;1.30;1.20;;;;;;;9.15;55.18;93780.00;5028953;28;20752;-76
2021/01/22 07:28:50;;;;;;;1.40;1.20;;;;;;;9.47;54.64;93780.66;5025732;28;20202;-76
2021/01/22 07:32:01;;;;;;;2.53;1.23;;;;;;;9.84;53.16;93782.22;5028389;28;20757;-76
2021/01/22 07:34:44;;;;;;;2.33;1.27;;;;;;;9.69;53.36;93781.81;5029588;28;20629;-76
2021/01/22 07:37:13;;;;;;;1.37;1.27;;;;;;;9.58;53.71;93790.25;5026557;28;20206;-75
2021/01/22 07:39:39;;;;;;;1.53;1.20;;;;;;;9.56;53.94;93780.19;5029242;28;20198;-75
2021/01/22 07:42:06;;;;;;;3.03;1.40;;;;;;;9.53;53.75;93779.81;5027742;28;20230;-76
2021/01/22 07:44:33;;;;;;;2.83;1.20;;;;;;;9.53;53.17;93783.19;5026186;28;20202;-77
2021/01/22 07:47:00;;;;;;;1.30;1.20;;;;;;;9.50;53.25;93781.03;5026777;28;20195;-76
2021/01/22 07:49:26;;;;;;;1.10;1.00;;;;;;;9.50;53.02;93780.25;5022668;28;20234;-75
2021/01/22 07:51:52;;;;;;;1.40;1.30;;;;;;;9.57;53.21;93778.41;5025221;28;20733;-75
2021/01/22 07:54:18;;;;;;;1.10;1.00;;;;;;;9.63;52.57;93777.53;5027809;28;20202;-75
2021/01/22 07:56:44;;;;;;;1.30;1.10;;;;;;;9.68;52.53;93778.47;5026042;28;20194;-77
2021/01/22 07:59:12;;;;;;;2.27;1.20;;;;;;;9.70;52.10;93778.25;5028391;28;20284;-76
2021/01/22 08:01:38;;;;;;;4.40;1.20;;;;;;;9.79;52.22;93779.53;5022676;28;20329;-76
2021/01/22 08:04:05;;;;;;;1.33;1.13;;;;;;;10.05;52.12;93771.50;5031459;28;20206;-75
2021/01/22 08:06:47;;;;;;;1.20;1.10;;;;;;;10.38;50.72;93772.88;5028791;28;20198;-77
2021/01/22 08:09:14;;;;;;;1.27;1.17;;;;;;;10.57;50.38;93778.75;5022863;28;20205;-77
2021/01/22 08:11:40;;;;;;;1.33;1.07;;;;;;;10.88;49.91;93773.31;5025098;28;20272;-76
2021/01/22 08:14:08;;;;;;;1.17;1.07;;;;;;;11.22;49.14;93776.09;5022946;28;20283;-75
2021/01/22 08:16:36;;;;;;;1.97;1.30;;;;;;;11.45;48.52;93783.03;5028951;28;20210;-76
2021/01/22 08:19:02;;;;;;;3.47;1.33;;;;;;;11.43;47.90;93776.31;5026792;28;20681;-75
2021/01/22 08:21:30;;;;;;;1.20;1.10;;;;;;;11.38;48.93;93783.16;5027901;28;20229;-76
2021/01/22 08:23:57;;;;;;;1.63;1.20;;;;;;;11.42;48.52;93786.84;5029544;28;20294;-76
2021/01/22 08:26:26;;;;;;;1.33;1.00;;;;;;;11.40;48.48;93778.56;5028528;28;20210;-76
2021/01/22 08:28:54;;;;;;;3.80;1.63;;;;;;;11.51;48.23;93779.56;5029119;28;20576;-77
2021/01/22 08:31:21;;;;;;;1.63;1.20;;;;;;;11.67;48.28;93778.88;5027909;28;20869;-74
2021/01/22 08:33:47;;;;;;;3.00;1.10;;;;;;;11.82;47.66;93779.19;5028060;28;20224;-76
2021/01/22 08:36:14;;;;;;;2.57;1.30;;;;;;;11.98;47.47;93783.63;5027317;28;20744;-76
2021/01/22 08:38:41;;;;;;;2.70;1.40;;;;;;;12.02;47.67;93774.44;5027869;28;20202;-76
2021/01/22 08:41:07;;;;;;;2.00;1.70;;;;;;;11.97;47.62;93773.53;5023605;28;20230;-77
2021/01/22 08:43:49;;;;;;;2.70;1.40;;;;;;;11.89;47.74;93764.41;5028356;28;20217;-77
2021/01/22 08:46:16;;;;;;;1.77;1.40;;;;;;;11.83;48.23;93764.50;5026998;28;20256;-76
2021/01/22 08:48:42;;;;;;;1.60;1.50;;;;;;;11.88;48.02;93757.66;5028072;28;20198;-77
2021/01/22 08:51:08;;;;;;;5.50;1.50;;;;;;;11.97;47.08;93765.81;5027446;28;20210;-75
2021/01/22 08:53:49;;;;;;;3.73;2.13;;;;;;;11.97;47.16;93760.66;5025090;28;20228;-75
2021/01/22 08:56:18;;;;;;;3.13;1.33;;;;;;;12.03;46.81;93752.00;5025624;28;20314;-75
2021/01/22 08:59:00;;;;;;;3.13;1.23;;;;;;;12.00;46.72;93753.25;5022369;28;20201;-75
2021/01/22 09:01:46;;;;;;;1.60;1.30;;;;;;;12.08;47.28;93758.06;5027943;28;20222;-76
2021/01/22 09:04:19;;;;;;;3.40;1.70;;;;;;;12.22;46.99;93755.19;5026351;28;20559;-76
2021/01/22 09:06:46;;;;;;;2.17;1.47;;;;;;;12.25;46.92;93757.31;5026890;28;20257;-75
2021/01/22 09:09:13;;;;;;;2.20;1.10;;;;;;;12.33;46.15;93754.34;5026472;28;20325;-76
2021/01/22 09:11:39;;;;;;;1.10;1.00;;;;;;;12.42;46.33;93748.56;5024941;28;20221;-76
2021/01/22 09:14:05;;;;;;;1.67;1.33;;;;;;;12.55;46.51;93747.50;5022507;28;20332;-76
2021/01/22 09:16:30;;;;;;;1.30;1.20;;;;;;;12.51;45.81;93754.13;5027742;28;20264;-76
2021/01/22 09:19:00;;;;;;;1.27;1.17;;;;;;;12.54;45.89;93760.63;5023791;28;20213;-76
2021/01/22 09:21:26;;;;;;;1.20;1.03;;;;;;;12.32;45.62;93766.44;5027093;28;20612;-76
2021/01/22 09:23:52;;;;;;;1.10;1.00;;;;;;;12.12;45.90;93768.69;5027174;28;20198;-76
2021/01/22 09:26:19;;;;;;;2.60;1.20;;;;;;;12.09;46.42;93761.41;5027305;28;20202;-76
2021/01/22 09:28:45;;;;;;;1.23;1.13;;;;;;;11.95;46.18;93765.25;5028416;28;20202;-76
2021/01/22 09:31:11;;;;;;;1.13;0.83;;;;;;;11.76;46.49;93765.41;5027509;28;20608;-76
2021/01/22 09:33:37;;;;;;;1.20;1.10;;;;;;;11.89;46.25;93761.81;5027228;28;20210;-76
2021/01/22 09:36:03;;;;;;;1.13;0.87;;;;;;;12.04;46.49;93769.84;5025775;28;20186;-76
2021/01/22 09:38:29;;;;;;;3.40;1.10;;;;;;;12.14;46.17;93761.47;5018967;28;20203;-76
2021/01/22 09:40:55;;;;;;;1.13;1.03;;;;;;;12.17;45.25;93763.59;5026795;28;20280;-76
2021/01/22 09:43:22;;;;;;;3.87;1.10;;;;;;;12.26;44.91;93753.72;5024623;28;20202;-76
2021/01/22 09:45:48;;;;;;;1.80;0.90;;;;;;;12.41;44.79;93751.38;5025479;28;20742;-76
2021/01/22 09:48:16;;;;;;;1.27;0.83;;;;;;;12.44;44.67;93750.94;5025338;28;20201;-75
2021/01/22 09:50:42;;;;;;;1.87;0.93;;;;;;;12.44;44.69;93738.03;5031196;28;20221;-75
2021/01/22 09:53:08;;;;;;;1.10;1.00;;;;;;;12.52;44.60;93729.88;5027231;28;20620;-76
2021/01/22 09:55:35;;;;;;;1.43;0.93;;;;;;;12.60;44.22;93731.31;5026185;28;20202;-75
2021/01/22 09:58:00;;;;;;;1.20;1.10;;;;;;;12.57;44.25;93729.97;5026910;28;20281;-76
2021/01/22 10:00:27;;;;;;;3.33;1.10;;;;;;;12.58;43.83;93728.19;5025740;28;20256;-75
2021/01/22 10:02:53;;;;;;;1.73;1.10;;;;;;;12.60;43.99;93732.09;5026647;28;20198;-76
2021/01/22 10:05:19;;;;;;;1.77;1.00;;;;;;;12.72;43.70;93722.47;5029643;28;20199;-76
2021/01/22 10:07:45;;;;;;;1.07;0.97;;;;;;;12.85;43.96;93718.78;5031162;28;20206;-76
2021/01/22 10:10:12;;;;;;;0.80;0.80;;;;;;;12.79;43.37;93715.34;5029860;28;20202;-75
2021/01/22 10:12:38;;;;;;;2.00;1.00;;;;;;;12.80;43.42;93695.47;5024155;28;20198;-75
2021/01/22 10:15:06;;;;;;;1.20;1.00;;;;;;;12.85;43.12;93705.09;5029706;28;20724;-75
2021/01/22 10:17:33;;;;;;;1.10;0.90;;;;;;;12.84;43.20;93699.16;5029214;28;20210;-76
2021/01/22 10:19:59;;;;;;;1.30;1.00;;;;;;;12.90;43.22;93692.25;5030962;28;20217;-76
2021/01/22 10:22:25;;;;;;;1.70;1.00;;;;;;;12.94;42.79;93683.00;5029307;28;20230;-76
2021/01/22 10:24:51;;;;;;;1.07;1.00;;;;;;;12.86;43.38;93680.84;5030196;28;20677;-75
2021/01/22 10:27:16;;;;;;;1.17;0.93;;;;;;;12.90;42.84;93662.03;5029550;28;20202;-75
2021/01/22 10:29:42;;;;;;;2.57;1.00;;;;;;;12.94;42.81;93670.09;5030200;28;20221;-75
2021/01/22 10:32:08;;;;;;;4.40;1.10;;;;;;;13.00;43.00;93664.75;5029429;28;20716;-75
2021/01/22 10:34:35;;;;;;;1.00;0.90;;;;;;;13.16;42.57;93659.81;5028825;28;20190;-76
2021/01/22 10:37:01;;;;;;;3.50;1.50;;;;;;;13.18;43.05;93650.81;5030638;28;20198;-76
2021/01/22 10:39:27;;;;;;;2.53;0.97;;;;;;;13.18;42.66;93653.41;5022643;28;20225;-76
2021/01/22 10:41:53;;;;;;;3.30;1.40;;;;;;;13.24;42.50;93656.84;5029985;28;20309;-76
2021/01/22 10:44:19;;;;;;;4.57;1.37;;;;;;;13.42;42.79;93653.94;5028141;28;20877;-76
2021/01/22 10:46:45;;;;;;;3.53;1.20;;;;;;;13.54;42.25;93659.75;5030188;28;20585;-75
2021/01/22 10:49:11;;;;;;;1.13;1.00;;;;;;;13.65;41.82;93655.50;5027809;28;20300;-76
2021/01/22 10:51:37;;;;;;;1.60;0.90;;;;;;;13.63;41.39;93647.22;5028862;28;20211;-75
2021/01/22 10:54:03;;;;;;;4.30;1.20;;;;;;;13.69;41.62;93641.03;5029178;28;20198;-74
2021/01/22 10:56:29;;;;;;;3.13;0.80;;;;;;;13.64;41.91;93643.59;5028332;28;20214;-75
2021/01/22 10:58:55;;;;;;;1.87;0.90;;;;;;;13.51;41.44;93642.16;5028702;28;20674;-76
2021/01/22 11:01:21;;;;;;;1.17;0.80;;;;;;;13.56;41.42;93636.25;5029327;28;20240;-75
2021/01/22 11:03:47;;;;;;;0.90;0.90;;;;;;;13.73;42.23;93637.72;5028584;28;20678;-75
2021/01/22 11:06:14;;;;;;;2.87;1.10;;;;;;;13.78;40.82;93630.03;5028010;28;20195;-75
2021/01/22 11:08:41;;;;;;;2.03;0.90;;;;;;;13.80;41.15;93625.41;5029313;28;20689;-76
2021/01/22 11:11:07;;;;;;;0.80;0.80;;;;;;;13.68;40.47;93601.47;5028280;28;20221;-76
2021/01/22 11:13:33;;;;;;;1.13;0.87;;;;;;;13.60;40.86;93609.69;5029449;28;20209;-76
2021/01/22 11:15:58;;;;;;;3.23;1.17;;;;;;;13.73;40.70;93595.56;5028765;28;20769;-76
2021/01/22 11:18:25;;;;;;;0.70;0.70;;;;;;;13.78;40.50;93591.25;5026612;28;20218;-76
2021/01/22 11:20:51;;;;;;;1.03;0.90;;;;;;;13.81;40.66;93580.41;5028249;28;20225;-76
2021/01/22 11:23:16;;;;;;;1.53;0.90;;;;;;;13.87;40.86;93583.03;5028224;28;20662;-75
2021/01/22 11:25:43;;;;;;;0.83;0.83;;;;;;;13.71;40.45;93582.88;5028663;28;20202;-76
2021/01/22 11:28:09;;;;;;;1.33;0.80;;;;;;;13.85;40.73;93585.88;5028875;28;20202;-75
2021/01/22 11:30:35;;;;;;;1.00;0.90;;;;;;;13.85;40.45;93583.28;5026191;28;20264;-76
2021/01/22 11:33:01;;;;;;;1.70;0.90;;;;;;;13.84;40.28;93584.31;5028227;28;20281;-75
2021/01/22 11:35:27;;;;;;;2.20;1.00;;;;;;;13.87;40.47;93586.38;5028037;28;20198;-75
2021/01/22 11:37:53;;;;;;;3.13;1.80;;;;;;;13.85;40.48;93578.13;5029165;28;20202;-75
2021/01/22 11:40:19;;;;;;;2.00;0.80;;;;;;;13.78;40.60;93573.13;5028039;28;20222;-75
2021/01/22 11:42:47;;;;;;;1.00;0.90;;;;;;;13.83;40.53;93578.34;5029025;28;20198;-75